Time;durP1;ratioP1;P1;durP2;ratioP2;P2;SDS_P1;SDS_P2;PMS_P1;PMS_P2;Temp;Humidity;BMP_temperature;BMP_pressure;BME280_temperature;BME280_humidity;BME280_pressure;Samples;Min_cycle;Max_cycle;Signal;HPM_P1;HPM_P2
2022/11/17 10:55:43;;;;;;;;;16.00;14.75;;;;;;;;5200121;27;77669;-87
2022/11/17 10:58:25;;;;;;;;;12.00;8.50;;;;;;;;5201990;27;23880;-87
2022/11/17 11:00:58;;;;;;;;;11.50;8.25;;;;;;;;5202328;27;22407;-89
2022/11/17 11:03:26;;;;;;;;;7.25;7.25;;;;;;;;5201540;27;11495;-87
2022/11/17 11:05:55;;;;;;;;;15.75;14.75;;;;;;;;5201316;27;21869;-87
2022/11/17 11:08:22;;;;;;;;;37.00;33.00;;;;;;;;5181605;27;23165;-87
2022/11/17 11:10:52;;;;;;;;;8.25;8.25;;;;;;;;5200936;27;11392;-87
2022/11/17 11:13:36;;;;;;;;;7.50;7.50;;;;;;;;5201324;27;10120;-86
2022/11/17 11:16:01;;;;;;;;;7.00;5.67;;;;;;;;5200734;27;9474;-87
2022/11/17 11:18:28;;;;;;;;;6.00;6.00;;;;;;;;5181801;27;9005;-87
2022/11/17 11:21:25;;;;;;;;;10.00;7.00;;;;;;;;5201296;27;8838;-87
2022/11/17 11:23:56;;;;;;;;;6.00;6.00;;;;;;;;5153314;27;9056;-88
2022/11/17 11:26:22;;;;;;;;;6.00;5.67;;;;;;;;5200773;27;8890;-84
2022/11/17 11:28:50;;;;;;;;;5.00;4.67;;;;;;;;5181360;27;9185;-87
2022/11/17 11:31:39;;;;;;;;;4.00;4.00;;;;;;;;5200552;27;9887;-86
2022/11/17 11:34:23;;;;;;;;;8.25;4.00;;;;;;;;5200114;27;11569;-79
2022/11/17 11:37:06;;;;;;;;;4.50;4.50;;;;;;;;5200257;27;10324;-72
2022/11/17 11:39:31;;;;;;;;;6.75;4.00;;;;;;;;5180289;27;12139;-71
2022/11/17 11:42:00;;;;;;;;;6.75;5.00;;;;;;;;5199768;27;11903;-72
2022/11/17 11:44:40;;;;;;;;;3.00;3.00;;;;;;;;5198729;27;8786;-71
2022/11/17 11:47:28;;;;;;;;;5.75;3.00;;;;;;;;5192620;27;10964;-71
2022/11/17 11:49:57;;;;;;;;;3.50;3.25;;;;;;;;5177678;27;10003;-69
2022/11/17 11:52:26;;;;;;;;;0.25;0.25;;;;;;;;5165325;27;11613;-69
2022/11/17 11:54:55;;;;;;;;;3.00;3.00;;;;;;;;5182090;27;10507;-68
2022/11/17 11:57:24;;;;;;;;;4.75;3.00;;;;;;;;5159174;27;13885;-68
2022/11/17 11:59:59;;;;;;;;;5.00;3.50;;;;;;;;5177848;27;10100;-69
2022/11/17 12:02:24;;;;;;;;;9.75;7.00;;;;;;;;5196665;27;11574;-70
2022/11/17 12:05:03;;;;;;;;;2.00;2.00;;;;;;;;5168993;27;14764;-70
2022/11/17 12:07:28;;;;;;;;;4.25;4.25;;;;;;;;5171425;27;10854;-70
2022/11/17 12:10:00;;;;;;;;;9.75;8.25;;;;;;;;5166084;27;11553;-70
2022/11/17 12:12:35;;;;;;;;;5.00;4.00;;;;;;;;5166863;27;9679;-72
2022/11/17 12:15:28;;;;;;;;;3.25;3.25;;;;;;;;5160610;27;12287;-69
2022/11/17 12:17:59;;;;;;;;;7.00;7.00;;;;;;;;5181350;27;12283;-70
2022/11/17 12:20:44;;;;;;;;;11.50;7.00;;;;;;;;5184517;27;13329;-69
2022/11/17 12:23:19;;;;;;;;;7.00;5.00;;;;;;;;5165574;27;19056;-69
2022/11/17 12:25:45;;;;;;;;;4.75;4.00;;;;;;;;5184291;27;22119;-69
2022/11/17 12:28:29;;;;;;;;;3.75;2.50;;;;;;;;5184348;27;10773;-68
2022/11/17 12:30:56;;;;;;;;;3.00;2.25;;;;;;;;5168150;27;12101;-71
2022/11/17 12:33:22;;;;;;;;;2.50;2.50;;;;;;;;5163470;27;10334;-80
2022/11/17 12:36:06;;;;;;;;;4.50;3.25;;;;;;;;5169015;27;11479;-78
2022/11/17 12:38:31;;;;;;;;;8.50;4.75;;;;;;;;5172191;27;11576;-77
2022/11/17 12:40:56;;;;;;;;;6.75;4.00;;;;;;;;5174410;27;10620;-78
2022/11/17 12:43:22;;;;;;;;;4.25;4.25;;;;;;;;5172425;27;11693;-77
2022/11/17 12:45:57;;;;;;;;;5.75;5.50;;;;;;;;5172682;27;11800;-77
2022/11/17 12:48:27;;;;;;;;;4.00;4.00;;;;;;;;5172617;27;11766;-77
2022/11/17 12:50:55;;;;;;;;;6.25;6.00;;;;;;;;5172160;27;11552;-77
2022/11/17 12:53:39;;;;;;;;;7.00;5.25;;;;;;;;5173644;27;10673;-78
2022/11/17 12:56:15;;;;;;;;;9.00;8.25;;;;;;;;5173160;27;12511;-78
2022/11/17 12:58:46;;;;;;;;;10.25;9.25;;;;;;;;5172938;27;10624;-77
2022/11/17 13:01:20;;;;;;;;;8.50;8.00;;;;;;;;5171522;27;21964;-78
2022/11/17 13:03:59;;;;;;;;;8.25;8.25;;;;;;;;5153925;27;24489;-78
2022/11/17 18:39:27;;;;;;;;;59.67;48.33;;;;;;;;5175199;27;13434;-88
2022/11/17 18:41:52;;;;;;;;;52.33;45.33;;;;;;;;5180357;27;8777;-84
2022/11/17 18:44:18;;;;;;;;;53.50;44.50;;;;;;;;5177989;27;11550;-85
2022/11/17 18:46:44;;;;;;;;;56.75;45.50;;;;;;;;5179851;27;8781;-89
2022/11/17 18:49:09;;;;;;;;;58.67;48.00;;;;;;;;5179559;27;8777;-83
2022/11/17 18:51:34;;;;;;;;;51.25;41.00;;;;;;;;5179639;27;8786;-83
2022/11/17 18:54:00;;;;;;;;;55.00;46.25;;;;;;;;5178061;27;8866;-83
2022/11/17 18:56:35;;;;;;;;;56.75;47.50;;;;;;;;5179697;27;8798;-84
2022/11/17 18:59:01;;;;;;;;;51.75;44.75;;;;;;;;5179111;27;8824;-84
2022/11/17 19:01:27;;;;;;;;;51.75;41.75;;;;;;;;5177676;27;11521;-79
2022/11/17 19:03:53;;;;;;;;;50.75;42.25;;;;;;;;5177697;27;8785;-79
2022/11/17 19:06:20;;;;;;;;;53.50;42.25;;;;;;;;5178971;27;11503;-77
2022/11/17 19:08:46;;;;;;;;;54.75;43.75;;;;;;;;5183662;22;11553;-70
2022/11/17 19:11:11;;;;;;;;;49.50;42.50;;;;;;;;5121863;27;11531;-69
2022/11/17 19:13:38;;;;;;;;;53.75;42.75;;;;;;;;5155607;27;8818;-70
2022/11/17 19:16:05;;;;;;;;;45.25;40.00;;;;;;;;5153559;27;8799;-68
2022/11/17 19:18:30;;;;;;;;;45.75;38.50;;;;;;;;5155964;27;11550;-68
2022/11/17 19:21:06;;;;;;;;;36.25;34.00;;;;;;;;5154133;27;11538;-69
2022/11/17 19:23:32;;;;;;;;;44.25;36.00;;;;;;;;5156040;27;8868;-69
2022/11/17 19:25:58;;;;;;;;;48.00;40.50;;;;;;;;5156183;27;11663;-69
2022/11/17 19:28:23;;;;;;;;;49.75;39.75;;;;;;;;5142739;27;12317;-69
2022/11/17 19:30:48;;;;;;;;;50.50;40.25;;;;;;;;5126537;27;8974;-69
2022/11/17 19:33:14;;;;;;;;;43.25;35.75;;;;;;;;5125925;27;8812;-69
2022/11/17 19:35:42;;;;;;;;;37.50;32.50;;;;;;;;5129155;27;9061;-68
2022/11/17 19:38:07;;;;;;;;;35.00;30.25;;;;;;;;5134645;27;8802;-69
2022/11/17 19:40:33;;;;;;;;;31.00;31.00;;;;;;;;5134507;27;11563;-69
2022/11/17 19:42:58;;;;;;;;;31.25;31.25;;;;;;;;5146261;27;8899;-71
2022/11/17 19:45:23;;;;;;;;;30.75;29.25;;;;;;;;5136634;27;8858;-70
2022/11/17 19:47:49;;;;;;;;;32.00;31.00;;;;;;;;5155957;27;8799;-70
2022/11/17 19:50:14;;;;;;;;;39.25;33.50;;;;;;;;5124072;27;8929;-71
2022/11/17 19:52:39;;;;;;;;;32.25;27.75;;;;;;;;5128511;27;8803;-71
2022/11/17 19:55:04;;;;;;;;;33.25;30.50;;;;;;;;5141781;27;8878;-71
2022/11/17 19:57:30;;;;;;;;;38.00;31.75;;;;;;;;5136627;27;8806;-72
2022/11/17 19:59:55;;;;;;;;;37.75;36.00;;;;;;;;5115399;27;8904;-73
2022/11/17 20:02:20;;;;;;;;;42.25;37.75;;;;;;;;5115866;27;8803;-72
2022/11/17 20:04:45;;;;;;;;;40.75;35.75;;;;;;;;5120399;27;8815;-70
2022/11/17 20:07:11;;;;;;;;;43.00;37.75;;;;;;;;5094749;28;8859;-71
2022/11/17 20:09:36;;;;;;;;;43.75;38.75;;;;;;;;5100089;28;8830;-70
2022/11/17 20:12:02;;;;;;;;;41.00;38.00;;;;;;;;5108994;27;8828;-72
2022/11/17 20:14:30;;;;;;;;;47.50;36.75;;;;;;;;5107881;27;10354;-70
2022/11/17 20:16:55;;;;;;;;;46.75;38.25;;;;;;;;5111314;28;8781;-70
2022/11/17 20:21:30;;;;;;;;;63.00;50.50;;;;;;;;5029911;27;68921;-66
2022/11/17 20:23:56;;;;;;;;;59.00;48.25;;;;;;;;5024614;28;11551;-68
2022/11/17 20:26:25;;;;;;;;;39.00;34.50;;;;;;;;5026265;28;8967;-66
2022/11/17 20:28:51;;;;;;;;;61.50;48.75;;;;;;;;5026022;28;8934;-66
2022/11/17 20:31:23;;;;;;;;;62.00;50.00;;;;;;;;5023238;28;11630;-66
2022/11/17 20:33:49;;;;;;;;;75.33;61.67;;;;;;;;5024492;28;8826;-66
2022/11/17 20:36:18;;;;;;;;;77.00;61.67;;;;;;;;5026048;28;8814;-67
2022/11/17 20:38:48;;;;;;;;;79.33;63.33;;;;;;;;5024806;28;8861;-67
2022/11/17 20:41:13;;;;;;;;;70.67;58.00;;;;;;;;5024337;28;8838;-67
2022/11/17 20:43:41;;;;;;;;;74.00;60.00;;;;;;;;5024962;28;9454;-67
2022/11/17 20:46:08;;;;;;;;;59.25;47.25;;;;;;;;5025819;28;8910;-68
2022/11/17 20:48:34;;;;;;;;;60.50;49.00;;;;;;;;5025898;28;11689;-68
2022/11/17 20:51:09;;;;;;;;;61.50;50.00;;;;;;;;5025602;28;11683;-70
2022/11/17 20:53:35;;;;;;;;;70.00;57.00;;;;;;;;5025794;28;11551;-73
2022/11/17 20:56:01;;;;;;;;;56.75;46.00;;;;;;;;5025352;28;11618;-72
2022/11/17 20:58:26;;;;;;;;;75.00;58.00;;;;;;;;5023778;28;8960;-72
2022/11/17 21:00:52;;;;;;;;;64.25;49.50;;;;;;;;5024133;28;9530;-70
2022/11/17 21:03:17;;;;;;;;;55.00;44.50;;;;;;;;5025554;28;8975;-69
2022/11/17 21:05:43;;;;;;;;;54.75;45.75;;;;;;;;5025495;28;8834;-67
2022/11/17 21:08:08;;;;;;;;;69.50;54.75;;;;;;;;5025479;28;8829;-68
2022/11/17 21:10:36;;;;;;;;;59.00;50.00;;;;;;;;5025901;28;8844;-68
2022/11/17 21:13:02;;;;;;;;;64.75;51.00;;;;;;;;4979056;28;11784;-69
2022/11/17 21:15:27;;;;;;;;;73.67;57.00;;;;;;;;5003341;28;11594;-70
2022/11/17 21:20:36;;;;;;;;;70.33;55.00;;;;;;;;5005156;28;9537;-69
2022/11/17 21:23:02;;;;;;;;;64.50;53.00;;;;;;;;5004868;28;11683;-69
2022/11/17 21:25:27;;;;;;;;;57.00;44.00;;;;;;;;5004827;28;8979;-69
2022/11/17 21:27:52;;;;;;;;;60.50;50.00;;;;;;;;5005149;28;8821;-69
2022/11/17 21:30:18;;;;;;;;;54.33;46.00;;;;;;;;5004540;28;8838;-69
2022/11/17 21:32:43;;;;;;;;;74.00;57.67;;;;;;;;4992543;28;9514;-69
2022/11/17 21:35:08;;;;;;;;;64.75;51.25;;;;;;;;4991643;28;8937;-69
2022/11/17 21:37:35;;;;;;;;;57.25;46.50;;;;;;;;4990285;28;9595;-69
2022/11/17 21:40:00;;;;;;;;;63.50;49.75;;;;;;;;4991350;28;8850;-70
2022/11/17 21:42:26;;;;;;;;;62.33;52.00;;;;;;;;4991862;28;11575;-68
2022/11/17 21:44:51;;;;;;;;;58.50;49.75;;;;;;;;4991754;28;8811;-69
2022/11/17 21:47:18;;;;;;;;;53.25;44.00;;;;;;;;4991988;28;8831;-69
2022/11/17 21:49:44;;;;;;;;;59.50;50.00;;;;;;;;4991784;28;8811;-69
2022/11/17 21:52:09;;;;;;;;;64.25;52.00;;;;;;;;4991712;28;11565;-69
2022/11/17 21:54:34;;;;;;;;;60.00;50.75;;;;;;;;4991917;28;8810;-68
2022/11/17 21:56:59;;;;;;;;;68.25;51.50;;;;;;;;4991600;28;9533;-68
2022/11/17 21:59:25;;;;;;;;;60.50;48.50;;;;;;;;4991538;28;8845;-69
2022/11/17 22:01:50;;;;;;;;;65.75;49.25;;;;;;;;4990516;28;8928;-71
2022/11/17 22:04:17;;;;;;;;;62.75;50.75;;;;;;;;4989878;28;8825;-69
2022/11/17 22:06:43;;;;;;;;;57.00;49.00;;;;;;;;4991432;28;9805;-69
2022/11/17 22:09:08;;;;;;;;;60.00;49.25;;;;;;;;4991842;28;11586;-69
2022/11/17 22:11:34;;;;;;;;;61.75;50.25;;;;;;;;4991204;28;9537;-69
2022/11/17 22:14:07;;;;;;;;;61.50;50.50;;;;;;;;4990230;28;8822;-69
2022/11/17 22:16:33;;;;;;;;;58.00;48.00;;;;;;;;4990111;28;8814;-68
2022/11/17 22:18:58;;;;;;;;;52.50;45.50;;;;;;;;4991509;28;11561;-69
2022/11/17 22:21:24;;;;;;;;;60.25;50.25;;;;;;;;4991201;28;8857;-68
2022/11/17 22:23:49;;;;;;;;;63.75;50.75;;;;;;;;4991358;28;8909;-68
2022/11/17 22:26:14;;;;;;;;;51.00;43.25;;;;;;;;4991360;28;8957;-68
2022/11/17 22:28:39;;;;;;;;;56.25;45.50;;;;;;;;4991239;28;8819;-69
2022/11/17 22:31:06;;;;;;;;;56.75;45.50;;;;;;;;4991237;28;8837;-68
2022/11/17 22:33:31;;;;;;;;;50.00;41.75;;;;;;;;4991174;28;8853;-69
2022/11/17 22:35:59;;;;;;;;;44.25;39.75;;;;;;;;4990910;28;11566;-69
2022/11/17 22:38:28;;;;;;;;;51.00;44.50;;;;;;;;4989523;28;8833;-69
2022/11/17 22:40:57;;;;;;;;;47.75;39.25;;;;;;;;4990874;28;11750;-69
2022/11/17 22:43:23;;;;;;;;;48.25;41.50;;;;;;;;4990197;28;11620;-69
2022/11/17 22:45:48;;;;;;;;;32.50;26.75;;;;;;;;4990824;28;11561;-68
2022/11/17 22:48:13;;;;;;;;;29.00;26.25;;;;;;;;4990670;28;8806;-68
2022/11/17 22:50:38;;;;;;;;;36.50;32.00;;;;;;;;4990853;28;8814;-68
2022/11/17 22:53:04;;;;;;;;;42.75;36.25;;;;;;;;4990749;28;8794;-68
2022/11/17 22:55:31;;;;;;;;;27.75;26.00;;;;;;;;4990892;28;9477;-70
2022/11/17 22:57:57;;;;;;;;;34.75;32.00;;;;;;;;4990852;28;9568;-68
2022/11/17 23:00:22;;;;;;;;;30.25;28.25;;;;;;;;4989076;28;11710;-68
2022/11/17 23:02:47;;;;;;;;;36.25;31.25;;;;;;;;4990433;28;8845;-68
2022/11/17 23:05:13;;;;;;;;;29.25;25.75;;;;;;;;4990470;28;9084;-69
2022/11/17 23:07:39;;;;;;;;;26.25;24.00;;;;;;;;4990426;28;8803;-68
2022/11/17 23:10:04;;;;;;;;;31.50;30.25;;;;;;;;4990837;28;8814;-68
2022/11/17 23:12:30;;;;;;;;;40.25;32.00;;;;;;;;4988918;28;8847;-68
2022/11/17 23:14:55;;;;;;;;;28.50;27.00;;;;;;;;4990239;28;8822;-68
2022/11/17 23:17:20;;;;;;;;;25.00;23.75;;;;;;;;4988710;28;8865;-68
2022/11/17 23:19:46;;;;;;;;;26.50;22.50;;;;;;;;4989834;28;9009;-69
2022/11/17 23:22:11;;;;;;;;;19.00;18.25;;;;;;;;4989871;28;8827;-68
2022/11/17 23:24:36;;;;;;;;;27.75;22.75;;;;;;;;4988787;28;8838;-68
2022/11/17 23:27:02;;;;;;;;;21.75;19.00;;;;;;;;4990067;28;8795;-68
2022/11/17 23:29:27;;;;;;;;;18.25;17.50;;;;;;;;4988700;28;8912;-69
2022/11/17 23:31:53;;;;;;;;;14.75;14.00;;;;;;;;4990116;28;8908;-68
2022/11/17 23:34:18;;;;;;;;;16.25;16.25;;;;;;;;4989803;28;8896;-69
2022/11/17 23:36:43;;;;;;;;;18.50;14.50;;;;;;;;4989910;28;8841;-69
2022/11/17 23:39:09;;;;;;;;;13.75;13.00;;;;;;;;4990009;28;8816;-69
2022/11/17 23:41:34;;;;;;;;;17.25;12.50;;;;;;;;4990150;28;8811;-69
2022/11/17 23:43:59;;;;;;;;;8.75;8.50;;;;;;;;4989960;28;8807;-69
2022/11/17 23:46:25;;;;;;;;;6.75;6.25;;;;;;;;4988391;28;8835;-70
2022/11/17 23:48:51;;;;;;;;;5.75;5.75;;;;;;;;4989766;28;8909;-69
2022/11/17 23:51:17;;;;;;;;;5.00;5.00;;;;;;;;4989814;28;8833;-69
2022/11/17 23:53:43;;;;;;;;;5.25;3.00;;;;;;;;4989836;28;8803;-69
2022/11/17 23:56:09;;;;;;;;;5.00;5.00;;;;;;;;4989360;28;11424;-69
2022/11/17 23:58:34;;;;;;;;;2.00;2.00;;;;;;;;4989552;28;8803;-69
